Elk City, OK (73644)

1:48 PM CDT on August 26, 2016 (GMT -0500)
Clinton-Sherman | | Change Station

Elev 1923 ft 35.34 °N, 99.20 °W | Updated 55 minutes ago

Clear
Clear
82 °F
Feels Like 83 °F
N
4
Wind Variable Wind from Variable

Today
High -- | Low -- °F
--% Chance of Precip.
Yesterday
High -- | Low -- °F
Precip. -- in
Pressure 30.05 in
Visibility 10.0 miles
Clouds Clear
Heat Index 83 °F
Dew Point 64 °F
Humidity 54%
Rainfall 0.48 in
Snow Depth Not available.
7:05 AM 8:12 PM
Waning Crescent, 32% visible
METAR KCSM 261753Z VRB03KT 10SM CLR 28/18 A3011 RMK AO2 SLP175 T02780178 10278 20189 58005
Pressure 30.05 in
Visibility 10.0 miles
Clouds Clear
Heat Index 83 °F
Dew Point 64 °F
Humidity 54%
Rainfall 0.48 in
Snow Depth Not available.
7:05 AM 8:12 PM
Waning Crescent, 32% visible
METAR KCSM 261753Z VRB03KT 10SM CLR 28/18 A3011 RMK AO2 SLP175 T02780178 10278 20189 58005

10-Day Weather Forecast

Almanac

Astronomy

Aug. 26, 2016 Rise Set
Actual Time
Civil Twilight
Nautical Twilight
Astronomical Twilight
Moon
Length of Visible Light
Length of Day
Tomorrow will be .
, % of the Moon is Illuminated

Today's Extremes

State Highs State Lows

Community

WunderPhotos

Upload Photos

1,935,175 photos uploaded!

WunderBlog® & News

Nearby

Air Quality

  Air Quality AQ Index Pollutant
Not available.

Snow Depth

Station Depth Elevation

Earthquake Activity

City Distance Mag. Time & Date
Minimum magnitude displayed is 2.5.

Coastal Water Temperatures

Place Temperature

Stations

Nearby Weather Stations

Station Location Temp. Windchill Dew Point Humidity Wind Precip. Elev Updated Type
                   

Watches & Warnings

There are currently no watches in effect.